ADDS METAR Data INFO
IDs: Format: Raw Decoded Include TAF

Data at: 1336 UTC 25 Feb 2018

K0R0 251315Z AUTO 02004KT 1 3/4SM RA BKN005 OVC008 13/12 A3019 RMK AO2
K0R0 251255Z AUTO 00000KT 1 1/4SM RA BKN004 BKN008 OVC027 13/12 A3018 RMK AO2
K0R0 251235Z AUTO 05004KT 1 1/2SM RA BKN004 OVC009 13/12 A3017 RMK AO2
K0R0 251215Z AUTO 01007KT 2SM RA BKN007 OVC011 13/12 A3016 RMK AO2
K0R0 251155Z AUTO 36007KT 10SM BKN007 OVC031 13/12 A3014 RMK AO2
K0R0 251135Z AUTO 35006G12KT 10SM OVC028 13/12 A3012 RMK AO2
K0R0 251115Z AUTO 01008KT 2SM RA FEW016 SCT020 OVC025 14/13 A3012 RMK AO2
K0R0 251055Z AUTO 35012G23KT 10SM BKN014 OVC019 16/13 A3011 RMK AO2
K0R0 251035Z AUTO 23006KT 10SM SCT011 BKN019 OVC025 22/20 A3006 RMK AO2
K0R0 251015Z AUTO 22006KT 10SM BKN010 OVC015 22/20 A3004 RMK AO2
K0R0 250955Z AUTO 19008KT 10SM BKN009 OVC014 22/20 A3003 RMK AO2
K0R0 250935Z AUTO 20008KT 10SM OVC008 22/20 A3003 RMK AO2
K0R0 250915Z AUTO 21007KT 10SM OVC008 22/20 A3003 RMK AO2
K0R0 250855Z AUTO 18010G15KT 10SM OVC009 22/20 A3001 RMK AO2
K0R0 250835Z AUTO 19009KT 10SM BKN010 OVC014 22/20 A3003 RMK AO2
K0R0 250815Z AUTO 19008G14KT 10SM BKN012 BKN023 OVC030 22/20 A3004 RMK AO2
K0R0 250755Z AUTO 19008KT 10SM BKN012 BKN022 OVC026 22/20 A3004 RMK AO2
K0R0 250735Z AUTO 19007KT 10SM SCT011 BKN025 OVC045 22/20 A3005 RMK AO2
K0R0 250715Z AUTO 19009G14KT 10SM BKN010 BKN030 OVC046 22/20 A3006 RMK AO2
K0R0 250655Z AUTO 20008KT 10SM FEW011 SCT041 OVC047 22/20 A3006 RMK AO2
K0R0 250635Z AUTO 19009G14KT 10SM FEW028 SCT042 OVC048 22/20 A3006 RMK AO2
K0R0 250615Z AUTO 19008KT 10SM FEW018 SCT030 BKN038 22/20 A3006 RMK AO2
K0R0 250555Z AUTO 19008G14KT 10SM SCT035 BKN043 BKN075 22/20 A3007 RMK AO2
K0R0 250535Z AUTO 19008G15KT 10SM SCT049 OVC090 22/20 A3006 RMK AO2
K0R0 250515Z AUTO 19009KT 10SM OVC049 22/20 A3006 RMK AO2
K0R0 250455Z AUTO 19010KT 10SM OVC050 22/20 A3007 RMK AO2
K0R0 250435Z AUTO 19008G14KT 10SM FEW037 BKN050 BKN070 22/20 A3006 RMK AO2
K0R0 250415Z AUTO 19010KT 10SM FEW037 BKN048 OVC090 22/20 A3007 RMK AO2
K0R0 250355Z AUTO 19009G15KT 10SM BKN047 BKN055 OVC095 23/20 A3006 RMK AO2
K0R0 250335Z AUTO 19011KT 10SM BKN047 OVC055 23/20 A3005 RMK AO2
K0R0 250315Z AUTO 19010G16KT 10SM BKN046 BKN055 BKN065 23/20 A3005 RMK AO2
K0R0 250255Z AUTO 19012KT 10SM FEW044 FEW065 BKN075 23/20 A3005 RMK AO2
K0R0 250235Z AUTO 19010KT 10SM FEW055 BKN070 BKN090 23/20 A3004 RMK AO2
K0R0 250215Z AUTO 19012G18KT 10SM CLR 23/19 A3004 RMK AO2
K0R0 250155Z AUTO 19012KT 10SM CLR 23/19 A3004 RMK AO2
K0R0 250135Z AUTO 19010G17KT 10SM CLR 23/19 A3003 RMK AO2
K0R0 250115Z AUTO 19011KT 10SM FEW027 SCT042 BKN075 23/19 A3003 RMK AO2
K0R0 250055Z AUTO VRB06G14KT 4SM -DZ FEW032 BKN060 OVC100 23/20 A3002 RMK AO2
K0R0 250035Z AUTO 19009KT 10SM SCT055 SCT100 24/19 A3002 RMK AO2
K0R0 250015Z AUTO 19010G15KT 10SM FEW095 25/19 A3002 RMK AO2
K0R0 242355Z AUTO 20010G19KT 10SM FEW090 25/19 A3002 RMK AO2
K0R0 242335Z AUTO 19010G16KT 10SM FEW034 FEW039 SCT090 25/19 A3001 RMK AO2
K0R0 242315Z AUTO 19009G17KT 10SM FEW040 FEW045 SCT090 26/19 A3001 RMK AO2
K0R0 242255Z AUTO 20017G22KT 10SM CLR 26/19 A3000 RMK AO2
K0R0 242235Z AUTO 19016G21KT 10SM FEW035 26/19 A2999 RMK AO2
K0R0 242215Z AUTO 18014G24KT 10SM -RA FEW035 27/19 A2999 RMK AO2
K0R0 242155Z AUTO 18017G22KT 10SM CLR 27/19 A2999 RMK AO2
K0R0 242135Z AUTO 18016G25KT 10SM -RA CLR 27/19 A2999 RMK AO2
K0R0 242115Z AUTO 19013G21KT 10SM FEW090 28/18 A3000 RMK AO2
K0R0 242055Z AUTO 19020KT 10SM -RA CLR 28/18 A2999 RMK AO2
K0R0 242035Z AUTO 19011G22KT 10SM FEW050 FEW060 29/17 A2999 RMK AO2
K0R0 242015Z AUTO 18011G21KT 10SM -RA FEW050 SCT060 28/17 A3001 RMK AO2
K0R0 241955Z AUTO 17015G22KT 10SM -RA FEW050 FEW060 28/17 A3001 RMK AO2
K0R0 241935Z AUTO 20015G23KT 10SM -RA CLR 29/17 A3003 RMK AO2
K0R0 241915Z AUTO 18016G25KT 10SM FEW055 28/17 A3004 RMK AO2
K0R0 241855Z AUTO 20014KT 10SM -DZ FEW042 FEW050 29/18 A3006 RMK AO2
K0R0 241835Z AUTO 18017G22KT 10SM SCT042 SCT048 28/17 A3007 RMK AO2
K0R0 241815Z AUTO 17009G19KT 130V200 10SM -DZ FEW038 SCT047 SCT065 28/18 A3008 RMK AO2
K0R0 241755Z AUTO 19012KT 10SM SCT036 SCT048 SCT065 28/18 A3009 RMK AO2
K0R0 241735Z AUTO 19014KT 10SM FEW027 SCT034 SCT075 27/19 A3011 RMK AO2
K0R0 241715Z AUTO 17011KT 10SM BKN024 BKN029 27/20 A3012 RMK AO2
K0R0 241655Z AUTO 21008G13KT 10SM BKN022 BKN029 25/20 A3013 RMK AO2
K0R0 241635Z AUTO 20009G15KT 10SM SCT018 SCT024 SCT043 25/20 A3014 RMK AO2
K0R0 241615Z AUTO 19011G17KT 10SM SCT015 BKN020 BKN034 25/21 A3014 RMK AO2
K0R0 241555Z AUTO 18008KT 10SM BKN015 OVC021 24/21 A3015 RMK AO2
K0R0 241535Z AUTO 19007KT 10SM BKN014 OVC020 23/20 A3016 RMK AO2
K0R0 241515Z AUTO 17008KT 10SM BKN012 OVC020 22/20 A3017 RMK AO2
K0R0 241455Z AUTO VRB03G10KT 10SM BKN014 BKN018 OVC036 22/20 A3016 RMK AO2
K0R0 241435Z AUTO 17006KT 10SM FEW009 BKN017 BKN029 22/20 A3016 RMK AO2
K0R0 241415Z AUTO 17005KT 10SM BKN007 BKN013 BKN031 21/20 A3016 RMK AO2
K0R0 241355Z AUTO 18004KT 9SM BKN007 BKN013 21/20 A3016 RMK AO2
K0R0 241335Z AUTO 17004KT 9SM BKN007 BKN012 21/20 A3015 RMK AO2
K0R0 241315Z AUTO 18005KT 9SM BKN008 OVC012 21/20 A3015 RMK AO2
K0R0 241255Z AUTO 16005G11KT 8SM BKN007 OVC011 21/20 A3014 RMK AO2
K0R0 241235Z AUTO 18006KT 6SM BR BKN005 OVC009 21/20 A3014 RMK AO2
K0R0 241215Z AUTO 18004KT 7SM OVC005 21/20 A3014 RMK AO2
K0R0 241155Z AUTO 18005KT 7SM OVC005 21/20 A3015 RMK AO2
K0R0 241135Z AUTO 17004KT 9SM OVC005 21/20 A3014 RMK AO2
K0R0 241115Z AUTO 18007KT 8SM OVC006 21/20 A3014 RMK AO2
K0R0 241055Z AUTO 18007KT 9SM OVC005 21/20 A3014 RMK AO2
K0R0 241035Z AUTO 18006KT 9SM OVC005 21/20 A3014 RMK AO2
K0R0 241015Z AUTO 18005KT 9SM OVC006 21/20 A3014 RMK AO2
K0R0 240955Z AUTO 18006KT 8SM BKN004 OVC012 20/20 A3013 RMK AO2
K0R0 240935Z AUTO 17004KT 7SM OVC003 20/20 A3014 RMK AO2
K0R0 240915Z AUTO 00000KT 5SM BR OVC003 20/20 A3015 RMK AO2
K0R0 240855Z AUTO 20004KT 5SM BR OVC003 20/20 A3015 RMK AO2
K0R0 240835Z AUTO 18004KT 5SM BR OVC003 20/20 A3015 RMK AO2
K0R0 240815Z AUTO 17004KT 3SM BR OVC003 20/20 A3016 RMK AO2
K0R0 240755Z AUTO 16004KT 9SM OVC003 20/20 A3017 RMK AO2
K0R0 240735Z AUTO 15004KT 10SM OVC003 20/20 A3018 RMK AO2
K0R0 240715Z AUTO 18004KT 10SM OVC004 20/20 A3019 RMK AO2
K0R0 240655Z AUTO 15004KT 10SM OVC004 20/20 A3019 RMK AO2
K0R0 240635Z AUTO 19003KT 10SM OVC004 20/19 A3019 RMK AO2
K0R0 240615Z AUTO 17005KT 10SM BKN005 OVC021 20/19 A3019 RMK AO2
K0R0 240555Z AUTO 17006KT 10SM OVC005 20/19 A3020 RMK AO2
K0R0 240535Z AUTO 16005KT 10SM OVC006 20/19 A3020 RMK AO2
K0R0 240515Z AUTO 16007KT 10SM OVC006 20/19 A3020 RMK AO2
K0R0 240455Z AUTO 16005KT 10SM BKN007 BKN019 OVC040 20/19 A3020 RMK AO2
K0R0 240435Z AUTO 16005KT 10SM FEW007 BKN019 OVC090 20/19 A3020 RMK AO2
K0R0 240415Z AUTO 15005KT 10SM FEW028 SCT090 20/19 A3020 RMK AO2
K0R0 240355Z AUTO 15005KT 10SM SCT026 BKN030 BKN095 20/19 A3021 RMK AO2
K0R0 240335Z AUTO 15004KT 10SM FEW010 SCT025 OVC095 20/19 A3021 RMK AO2
K0R0 240315Z AUTO 16003KT 10SM OVC095 20/19 A3022 RMK AO2
K0R0 240255Z AUTO 14004KT 10SM BKN095 OVC110 20/20 A3021 RMK AO2
K0R0 240235Z AUTO VRB03KT 10SM SCT018 BKN095 OVC110 21/20 A3022 RMK AO2
K0R0 240215Z AUTO 15005KT 10SM SCT017 BKN046 OVC080 21/20 A3022 RMK AO2
K0R0 240155Z AUTO 13004KT 10SM FEW030 SCT047 BKN065 21/20 A3022 RMK AO2